Time;durP1;ratioP1;P1;durP2;ratioP2;P2;SDS_P1;SDS_P2;PMS_P1;PMS_P2;Temp;Humidity;BMP_temperature;BMP_pressure;BME280_temperature;BME280_humidity;BME280_pressure;Samples;Min_cycle;Max_cycle;Signal;HPM_P1;HPM_P2
2023/05/18 00:20:03;;;;;;;6.73;2.20;;;;;;;14.16;100.00;52261.81;5549106;22;15172599;-85
2023/05/18 00:22:41;;;;;;;5.13;2.57;;;;;;;13.97;100.00;40841.97;6193956;23;20517;-85
2023/05/18 00:25:31;;;;;;;2.80;2.67;;;;;;;12.94;100.00;40443.78;6195629;23;20169;-85
2023/05/18 00:28:17;;;;;;;7.20;2.20;;;;;;;14.29;100.00;32738.75;6167026;23;20617;-87
2023/05/18 00:31:15;;;;;;;4.87;2.30;;;;;;;13.30;100.00;37871.28;6164226;23;20620;-85
2023/05/18 00:33:57;;;;;;;4.50;2.40;;;;;;;13.93;100.00;37913.28;6156961;23;20626;-85
2023/05/18 00:36:57;;;;;;;4.80;2.43;;;;;;;14.67;100.00;43497.69;6160883;23;20590;-84
2023/05/18 00:39:48;;;;;;;4.63;2.37;;;;;;;14.39;100.00;47061.13;6133495;23;20166;-86
2023/05/18 00:45:19;;;;;;;4.80;2.43;;;;;;;15.03;100.00;65770.03;6148714;23;20170;-87
2023/05/18 00:50:49;;;;;;;2.60;2.40;;;;;;;15.23;100.00;74997.34;6136965;23;20174;-86
2023/05/18 00:53:24;;;;;;;2.90;2.30;;;;;;;14.41;100.00;80157.56;6146542;23;20539;-86
2023/05/18 00:55:56;;;;;;;2.43;2.23;;;;;;;13.56;100.00;89591.00;6164149;23;20505;-88
2023/05/18 00:58:33;;;;;;;2.07;1.97;;;;;;;15.35;100.00;88539.22;6146370;23;20468;-86
2023/05/18 01:01:18;;;;;;;2.57;2.37;;;;;;;14.99;100.00;93445.50;6147681;23;20181;-86
2023/05/18 01:04:13;;;;;;;4.60;2.23;;;;;;;14.45;100.00;101964.50;6138426;23;20466;-87
2023/05/18 01:06:50;;;;;;;2.10;2.00;;;;;;;13.86;100.00;106170.19;6157745;23;20184;-87
2023/05/18 01:09:45;;;;;;;7.60;2.23;;;;;;;15.62;100.00;108146.97;6148516;23;20578;-86
2023/05/18 01:12:31;;;;;;;4.10;2.10;;;;;;;15.39;100.00;96488.38;6153347;23;20754;-85
2023/05/18 01:15:36;;;;;;;4.50;2.27;;;;;;;14.43;100.00;74567.19;6165862;23;20587;-85
2023/05/18 01:18:22;;;;;;;2.60;2.30;;;;;;;14.49;100.00;54578.50;6160388;23;20194;-87
2023/05/18 01:21:03;;;;;;;2.93;2.27;;;;;;;13.92;100.00;53545.56;6158278;23;20162;-86
2023/05/18 01:27:36;;;;;;;3.97;2.30;;;;;;;14.38;100.00;59146.22;6154484;23;20212;-86
2023/05/18 01:30:10;;;;;;;2.37;1.70;;;;;;;14.31;100.00;75209.88;6153440;23;20162;-87
2023/05/18 01:32:54;;;;;;;2.90;2.13;;;;;;;13.31;100.00;92190.44;6156781;23;20216;-85
2023/05/18 01:35:46;;;;;;;2.13;2.03;;;;;;;14.15;100.00;100919.88;6142692;23;20511;-85
2023/05/18 01:38:27;;;;;;;3.57;1.80;;;;;;;13.98;100.00;113159.72;6153585;23;20482;-87
2023/05/18 01:41:17;;;;;;;1.60;1.50;;;;;;;13.77;100.00;127761.63;6147653;23;20557;-87
2023/05/18 01:44:16;;;;;;;;;;;;;;;;;;;;;
2023/05/18 01:46:59;;;;;;;1.97;1.77;;;;;;;15.19;100.00;149641.84;6151582;23;20162;-86
2023/05/18 01:49:54;;;;;;;4.20;1.60;;;;;;;15.58;100.00;149952.34;6151861;23;20173;-86
2023/05/18 01:52:51;;;;;;;2.00;1.90;;;;;;;13.83;100.00;149513.53;6157647;23;20705;-87
2023/05/18 01:55:26;;;;;;;5.27;1.70;;;;;;;14.88;100.00;149777.28;6155223;23;20525;-87
2023/05/18 01:58:01;;;;;;;2.10;1.60;;;;;;;13.83;100.00;149514.81;6158002;23;20605;-86
2023/05/18 02:00:49;;;;;;;2.13;1.90;;;;;;;15.36;100.00;149897.78;6150284;23;20666;-86
2023/05/18 02:03:24;;;;;;;1.60;1.50;;;;;;;13.77;100.00;149499.56;6158591;23;20204;-86
2023/05/18 02:06:03;;;;;;;4.97;2.10;;;;;;;14.65;100.00;149720.19;6164441;23;20240;-87
2023/05/18 02:11:30;;;;;;;1.77;1.67;;;;;;;14.09;100.00;149579.41;6159960;23;20181;-85
2023/05/18 02:14:15;;;;;;;2.27;1.80;;;;;;;14.77;100.00;149750.63;6154760;23;20176;-86
2023/05/18 02:17:07;;;;;;;2.27;2.07;;;;;;;13.93;100.00;149540.13;6152778;23;20701;-87
2023/05/18 02:19:41;;;;;;;3.67;1.70;;;;;;;14.52;100.00;149687.22;6138409;23;20542;-86
2023/05/18 02:22:22;;;;;;;3.10;2.07;;;;;;;15.88;100.00;150029.78;6163148;23;20483;-87
2023/05/18 02:25:09;;;;;;;1.57;1.47;;;;;;;14.19;100.00;149606.03;6152147;23;20197;-86
2023/05/18 02:27:50;;;;;;;3.33;2.27;;;;;;;14.88;100.00;149778.53;6153939;23;20169;-87
2023/05/18 02:30:35;;;;;;;4.50;1.70;;;;;;;14.18;100.00;149602.22;6154471;23;20172;-86
2023/05/18 02:33:35;;;;;;;;;;;;;;;;;;;;;
2023/05/18 02:36:21;;;;;;;6.87;2.00;;;;;;;16.02;100.00;150062.81;6155496;23;20641;-86
2023/05/18 02:39:23;;;;;;;2.07;1.97;;;;;;;14.09;100.00;149579.41;6157182;23;20240;-88
2023/05/18 02:42:02;;;;;;;3.20;2.00;;;;;;;14.36;100.00;149647.91;6159525;23;20196;-87
2023/05/18 02:45:06;;;;;;;;;;;;;;;;;;;;;
2023/05/18 02:47:53;;;;;;;2.40;2.00;;;;;;;16.14;100.00;150093.25;6146415;23;20217;-87
2023/05/18 02:50:37;;;;;;;1.87;1.77;;;;;;;16.05;100.00;150070.41;6165127;23;20162;-87
2023/05/18 02:53:26;;;;;;;3.73;1.60;;;;;;;15.97;100.00;150051.38;6154693;23;20530;-85
2023/05/18 02:56:02;;;;;;;1.83;1.73;;;;;;;14.28;100.00;149627.59;6144909;23;20487;-89
2023/05/18 02:58:37;;;;;;;2.83;1.53;;;;;;;16.07;100.00;150076.78;6146941;23;20205;-86
2023/05/18 03:01:12;;;;;;;1.93;1.80;;;;;;;15.18;100.00;149853.38;6160499;23;20162;-86
2023/05/18 03:04:01;;;;;;;5.40;2.00;;;;;;;14.15;100.00;149594.63;6148767;23;20549;-87
2023/05/18 03:09:38;;;;;;;4.30;1.90;;;;;;;16.18;100.00;150103.41;6137417;23;20201;-86
2023/05/18 03:12:16;;;;;;;3.27;2.20;;;;;;;14.76;100.00;149748.13;6152104;23;20198;-87
2023/05/18 03:18:05;;;;;;;;;;;;;;;;;;;;;
2023/05/18 03:21:12;;;;;;;3.00;2.00;;;;;;;14.50;100.00;149682.16;6152321;23;20241;-86
2023/05/18 03:24:20;;;;;;;2.00;1.90;;;;;;;16.28;100.00;150128.81;6151968;23;20193;-88
2023/05/18 03:27:24;;;;;;;1.90;1.80;;;;;;;16.27;100.00;150126.28;6155308;23;20189;-86
2023/05/18 03:30:11;;;;;;;3.53;2.43;;;;;;;16.10;100.00;150083.09;6152397;23;20184;-86
2023/05/18 03:32:50;;;;;;;5.00;1.97;;;;;;;16.52;100.00;150189.75;6146898;23;20645;-87
2023/05/18 03:38:12;;;;;;;6.07;1.93;;;;;;;16.56;100.00;150199.91;6128732;23;20174;-88
2023/05/18 03:41:33;;;;;;;;;;;;;;;;;;;;;
2023/05/18 03:44:34;;;;;;;5.20;2.00;;;;;;;15.18;100.00;149852.13;6003695;23;20696;-88
2023/05/18 03:47:22;;;;;;;3.10;1.90;;;;;;;16.41;100.00;150161.84;6090620;23;20553;-87
2023/05/18 03:50:17;;;;;;;6.30;2.40;;;;;;;16.74;100.00;150245.69;6157208;23;20257;-87
2023/05/18 03:52:51;;;;;;;3.67;1.73;;;;;;;15.24;100.00;149867.31;6125549;23;20558;-86
2023/05/18 03:58:36;;;;;;;4.13;2.10;;;;;;;14.81;100.00;149760.75;6155721;23;20490;-87
2023/05/18 04:01:11;;;;;;;2.40;2.20;;;;;;;16.71;100.00;150236.81;6142360;23;20701;-87
2023/05/18 14:24:09;;;;;;;14.50;7.57;;;;;;;21.13;100.00;151348.88;6188747;23;20201;-88
2023/05/18 15:45:19;;;;;;;8.47;7.70;;;;;;;20.70;100.00;151240.53;6017503;23;20214;-86
2023/05/18 15:51:55;;;;;;;9.63;7.37;;;;;;;20.55;100.00;151202.28;6024481;23;20585;-87
2023/05/18 15:58:31;;;;;;;;;;;;;;;;;;;;;
2023/05/18 16:11:08;;;;;;;6.77;6.27;;;;;;;19.43;100.00;150920.94;6180260;23;20267;-87
2023/05/18 16:13:55;;;;;;;;;;;;;;;;;;;;;
2023/05/18 16:17:00;;;;;;;7.27;6.80;;;;;;;20.42;100.00;151171.72;6193699;23;20216;-87
2023/05/18 16:22:50;;;;;;;7.40;6.90;;;;;;;19.43;100.00;150920.94;6150182;23;20232;-86
2023/05/18 16:29:24;;;;;;;8.60;7.10;;;;;;;19.84;100.00;151025.28;6221093;23;20587;-89
2023/05/18 16:35:38;;;;;;;8.90;6.83;;;;;;;19.62;100.00;150969.25;6205909;23;20219;-88
2023/05/18 16:38:37;;;;;;;;;;;;;;;;;;;;;
2023/05/18 16:44:31;;;;;;;;;;;;;;;;;;;;;
2023/05/18 16:47:31;;;;;;;6.27;5.90;;;;;;;18.17;100.00;150604.06;6196710;23;20595;-88
2023/05/18 16:53:15;;;;;;;6.50;6.03;;;;;;;19.83;100.00;151021.44;6075762;23;20607;-85
2023/05/18 16:58:52;;;;;;;6.43;5.77;;;;;;;19.71;100.00;150992.19;6185801;23;20191;-86
2023/05/18 17:01:31;;;;;;;6.03;5.73;;;;;;;19.83;100.00;151021.44;6193856;23;20648;-86
2023/05/18 17:04:34;;;;;;;;;;;;;;;;;;;;;
2023/05/18 17:08:02;;;;;;;;;;;;;;;;;;;;;
2023/05/18 17:11:15;;;;;;;6.23;5.70;;;;;;;18.25;100.00;150625.69;6175902;23;20532;-87
2023/05/18 17:17:11;;;;;;;6.37;5.87;;;;;;;19.79;100.00;151012.53;6196029;23;20555;-88
2023/05/18 17:20:07;;;;;;;5.77;5.27;;;;;;;19.27;100.00;150880.13;6195241;23;20627;-86
2023/05/18 17:23:11;;;;;;;;;;;;;;;;;;;;;
2023/05/18 17:26:29;;;;;;;;;;;;;;;;;;;;;
2023/05/18 17:29:38;;;;;;;5.57;5.17;;;;;;;18.01;100.00;150563.41;6015988;23;20486;-86
2023/05/18 17:35:56;;;;;;;;;;;;;;;;;;;;;
2023/05/18 17:38:36;;;;;;;;;;;;;;;;;;;;;
2023/05/18 17:47:02;;;;;;;14.63;8.33;;;;;;;19.59;100.00;150962.94;6192382;23;20447;-87
2023/05/18 17:50:02;;;;;;;8.70;8.03;;;;;;;18.58;100.00;150708.44;6200180;23;20461;-89
2023/05/18 17:52:53;;;;;;;10.90;8.17;;;;;;;18.94;100.00;150797.44;6171612;23;20552;-86
2023/05/18 17:55:58;;;;;;;;;;;;;;;;;;;;;
2023/05/18 17:58:51;;;;;;;;;;;;;;;;;;;;;
2023/05/18 18:04:39;;;;;;;8.37;7.63;;;;;;;18.14;100.00;150596.47;6162331;23;20250;-88
2023/05/18 18:07:25;;;;;;;8.50;7.67;;;;;;;18.74;100.00;150746.56;6189520;23;20191;-86
2023/05/18 18:10:17;;;;;;;8.80;7.83;;;;;;;19.15;100.00;150850.88;6194928;23;20623;-85
2023/05/18 18:13:16;;;;;;;;;;;;;;;;;;;;;
2023/05/18 18:19:00;;;;;;;11.60;8.17;;;;;;;18.61;100.00;150714.78;6202901;23;20255;-85
2023/05/18 18:21:40;;;;;;;9.47;7.90;;;;;;;18.94;100.00;150797.44;6200960;23;20169;-87
2023/05/18 18:24:24;;;;;;;9.80;8.77;;;;;;;18.64;100.00;150723.66;6220130;23;20543;-87
2023/05/18 18:27:05;;;;;;;;;;;;;;;;;;;;;
2023/05/18 18:32:43;;;;;;;;;;;;;;;;;;;;;
2023/05/18 18:35:20;;;;;;;8.80;8.00;;;;;;;18.36;100.00;150652.41;6193794;23;20279;-88
2023/05/18 18:51:02;;;;;;;10.27;7.50;;;;;;;17.36;100.00;150400.66;5926525;23;20183;-88
2023/05/18 18:57:11;;;;;;;;;;;;;;;;;;;;;
2023/05/18 19:03:40;;;;;;;9.67;7.30;;;;;;;18.24;100.00;150621.91;6061364;23;20219;-85
2023/05/18 19:06:37;;;;;;;7.57;7.17;;;;;;;17.25;100.00;150372.72;5962680;23;20173;-85
2023/05/18 19:10:02;;;;;;;7.97;6.70;;;;;;;18.31;100.00;150639.69;6048604;23;20521;-88
2023/05/18 19:36:20;;;;;;;8.20;7.43;;;;;;;17.75;100.00;150498.56;6019263;23;20646;-86
2023/05/18 20:13:42;;;;;;;;;;;;;;;;;;;;;
2023/05/18 20:26:17;;;;;;;9.67;8.77;;;;;;;17.97;100.00;150553.22;5961815;23;20196;-86
2023/05/18 20:38:47;;;;;;;;;;;;;;;;;;;;;
2023/05/18 21:57:18;;;;;;;10.50;9.67;;;;;;;17.71;100.00;150488.41;6105928;23;20668;-86
2023/05/18 22:00:41;;;;;;;;;;;;;;;;;;;;;
2023/05/18 22:03:51;;;;;;;;;;;;;;;;;;;;;
2023/05/18 22:13:39;;;;;;;11.10;10.13;;;;;;;17.53;100.00;150443.88;5989715;23;20636;-87
2023/05/18 23:51:32;;;;;;;;;;;;;;;;;;;;;
2023/05/18 23:54:59;;;;;;;9.30;8.53;;;;;;;15.27;100.00;149876.22;6009363;23;20176;-87
2023/05/18 23:58:18;;;;;;;9.73;8.97;;;;;;;16.19;100.00;150105.97;5933455;23;20215;-87
